createdAt,value
2018-11-22T00:02:35.609Z,-80
2018-11-22T00:08:34.778Z,-81
2018-11-22T00:11:25.675Z,-80
2018-11-22T00:14:09.358Z,-81
2018-11-22T00:17:00.185Z,-80
2018-11-22T00:19:43.364Z,-80
2018-11-22T00:22:34.199Z,-80
2018-11-22T00:25:17.518Z,-80
2018-11-22T00:28:08.367Z,-80
2018-11-22T00:30:51.666Z,-80
2018-11-22T00:33:42.511Z,-81
2018-11-22T00:36:25.907Z,-80
2018-11-22T00:39:16.776Z,-80
2018-11-22T00:42:01.039Z,-80
2018-11-22T00:44:51.970Z,-79
2018-11-22T00:47:35.638Z,-80
2018-11-22T00:50:26.478Z,-80
2018-11-22T00:53:09.542Z,-80
2018-11-22T00:56:00.393Z,-80
2018-11-22T00:58:43.521Z,-80
2018-11-22T01:04:29.225Z,-82
2018-11-22T01:07:12.257Z,-81
2018-11-22T01:09:55.432Z,-81
2018-11-22T01:12:47.080Z,-82
2018-11-22T01:15:30.941Z,-81
2018-11-22T01:18:21.801Z,-81
2018-11-22T01:21:05.790Z,-82
2018-11-22T01:23:49.533Z,-80
2018-11-22T01:26:40.341Z,-80
2018-11-22T01:29:23.513Z,-80
2018-11-22T01:32:14.336Z,-81
2018-11-22T01:34:57.686Z,-80
2018-11-22T01:37:48.549Z,-81
2018-11-22T01:40:31.967Z,-81
2018-11-22T01:43:15.089Z,-81
2018-11-22T01:46:06.085Z,-80
2018-11-22T01:48:49.143Z,-80
2018-11-22T01:51:39.969Z,-80
2018-11-22T01:54:23.475Z,-80
2018-11-22T01:57:14.319Z,-80
2018-11-22T01:59:57.298Z,-80
2018-11-22T02:02:48.238Z,-80
2018-11-22T02:05:31.799Z,-81
2018-11-22T02:08:15.238Z,-80
2018-11-22T02:11:06.127Z,-80
2018-11-22T02:13:49.809Z,-80
2018-11-22T02:16:40.671Z,-81
2018-11-22T02:19:24.273Z,-81
2018-11-22T02:22:15.225Z,-80
2018-11-22T02:25:02.302Z,-80
2018-11-22T02:27:45.835Z,-80
2018-11-22T02:30:36.663Z,-80
2018-11-22T02:33:19.704Z,-82
2018-11-22T02:36:10.510Z,-81
2018-11-22T02:38:54.165Z,-81
2018-11-22T02:41:44.975Z,-80
2018-11-22T02:44:32.945Z,-80
2018-11-22T02:47:23.792Z,-80
2018-11-22T02:50:08.550Z,-81
2018-11-22T02:52:59.439Z,-80
2018-11-22T02:55:42.508Z,-82
2018-11-22T02:58:25.957Z,-81
2018-11-22T03:01:16.799Z,-81
2018-11-22T03:04:00.506Z,-81
2018-11-22T03:06:51.356Z,-81
2018-11-22T03:09:34.931Z,-81
2018-11-22T03:12:28.442Z,-81
2018-11-22T03:15:11.559Z,-80
2018-11-22T03:18:02.401Z,-81
2018-11-22T03:20:44.337Z,-81
2018-11-22T03:23:35.189Z,-80
2018-11-22T03:26:18.180Z,-81
2018-11-22T03:29:08.954Z,-81
2018-11-22T03:31:52.796Z,-81
2018-11-22T03:34:43.668Z,-81
2018-11-22T03:37:26.964Z,-82
2018-11-22T03:40:12.532Z,-81
2018-11-22T03:43:03.375Z,-81
2018-11-22T03:45:46.461Z,-80
2018-11-22T03:48:37.312Z,-80
2018-11-22T03:51:21.175Z,-82
2018-11-22T03:54:12.027Z,-80
2018-11-22T03:56:55.210Z,-80
2018-11-22T03:59:46.063Z,-82
2018-11-22T04:02:49.424Z,-82
2018-11-22T04:05:40.528Z,-80
2018-11-22T04:08:23.530Z,-80
2018-11-22T04:11:07.044Z,-80
2018-11-22T04:13:58.000Z,-80
2018-11-22T04:16:41.849Z,-80
2018-11-22T04:19:32.693Z,-80
2018-11-22T04:22:16.033Z,-80
2018-11-22T04:25:07.753Z,-81
2018-11-22T04:27:51.059Z,-81
2018-11-22T04:30:41.908Z,-81
2018-11-22T04:33:24.963Z,-81
2018-11-22T04:36:15.838Z,-80
2018-11-22T04:39:03.201Z,-81
2018-11-22T04:41:46.514Z,-81
2018-11-22T04:44:37.364Z,-81
2018-11-22T04:47:20.773Z,-81
2018-11-22T04:50:13.642Z,-81
2018-11-22T04:52:56.642Z,-80
2018-11-22T04:55:47.469Z,-81
2018-11-22T04:58:30.801Z,-81
2018-11-22T05:01:21.656Z,-81
2018-11-22T05:04:05.654Z,-80
2018-11-22T05:06:56.665Z,-81
2018-11-22T05:09:39.884Z,-80
2018-11-22T05:12:22.891Z,-80
2018-11-22T05:15:15.224Z,-81
2018-11-22T05:17:58.868Z,-80
2018-11-22T05:20:49.747Z,-80
2018-11-22T05:23:33.549Z,-79
2018-11-22T05:26:24.396Z,-80
2018-11-22T05:29:12.363Z,-81
2018-11-22T05:31:59.034Z,-79
2018-11-22T05:34:44.181Z,-81
2018-11-22T05:37:35.080Z,-80
2018-11-22T05:40:19.641Z,-80
2018-11-22T05:43:10.517Z,-80
2018-11-22T05:45:53.671Z,-82
2018-11-22T05:48:37.156Z,-81
2018-11-22T05:51:27.982Z,-80
2018-11-22T05:54:10.986Z,-81
2018-11-22T05:57:01.997Z,-80
2018-11-22T05:59:45.038Z,-81
2018-11-22T06:02:35.856Z,-81
2018-11-22T06:05:18.948Z,-82
2018-11-22T06:08:09.834Z,-81
2018-11-22T06:10:55.497Z,-82
2018-11-22T06:13:46.400Z,-82
2018-11-22T06:16:29.975Z,-81
2018-11-22T06:19:13.321Z,-82
2018-11-22T06:21:56.675Z,-80
2018-11-22T06:24:40.031Z,-81
2018-11-22T06:27:30.854Z,-81
2018-11-22T06:30:24.920Z,-82
2018-11-22T06:33:22.422Z,-81
2018-11-22T06:36:05.891Z,-81
2018-11-22T06:38:56.722Z,-81
2018-11-22T06:41:39.978Z,-81
2018-11-22T06:44:30.828Z,-80
2018-11-22T06:47:14.458Z,-82
2018-11-22T06:50:08.163Z,-83
2018-11-22T06:52:51.856Z,-82
2018-11-22T06:55:35.793Z,-83
2018-11-22T06:58:26.777Z,-83
2018-11-22T07:01:15.772Z,-83
2018-11-22T07:03:59.664Z,-83
2018-11-22T07:06:50.512Z,-83
2018-11-22T07:09:38.103Z,-83
2018-11-22T07:12:28.971Z,-83
2018-11-22T07:15:14.466Z,-83
2018-11-22T07:18:05.348Z,-82
2018-11-22T07:20:48.831Z,-83
2018-11-22T07:23:39.678Z,-83
2018-11-22T07:26:23.354Z,-82
2018-11-22T07:29:14.184Z,-82
2018-11-22T07:32:01.439Z,-83
2018-11-22T07:34:52.283Z,-83
2018-11-22T07:37:39.980Z,-83
2018-11-22T07:40:31.926Z,-82
2018-11-22T07:43:14.977Z,-83
2018-11-22T07:46:06.150Z,-83
2018-11-22T07:48:50.260Z,-81
2018-11-22T07:51:41.415Z,-84
2018-11-22T07:54:24.800Z,-80
2018-11-22T07:57:08.518Z,-80
2018-11-22T07:59:59.359Z,-79
2018-11-22T08:02:44.337Z,-79
2018-11-22T08:05:36.235Z,-79
2018-11-22T08:08:19.492Z,-79
2018-11-22T08:11:10.350Z,-79
2018-11-22T08:13:53.677Z,-80
2018-11-22T08:16:44.519Z,-78
2018-11-22T08:19:28.342Z,-79
2018-11-22T08:22:19.192Z,-79
2018-11-22T08:25:02.306Z,-78
2018-11-22T08:27:53.616Z,-82
2018-11-22T08:30:36.935Z,-81
2018-11-22T08:33:20.202Z,-79
2018-11-22T08:36:11.120Z,-79
2018-11-22T08:38:53.974Z,-79
2018-11-22T08:44:28.204Z,-81
2018-11-22T08:47:19.142Z,-81
2018-11-22T08:50:02.455Z,-79
2018-11-22T08:52:54.473Z,-79
2018-11-22T08:55:37.583Z,-79
2018-11-22T08:58:28.407Z,-80
2018-11-22T09:01:11.937Z,-80
2018-11-22T09:04:02.767Z,-80
2018-11-22T09:06:46.290Z,-79
2018-11-22T09:09:37.155Z,-79
2018-11-22T09:12:20.483Z,-79
2018-11-22T09:15:03.461Z,-80
2018-11-22T09:17:54.275Z,-80
2018-11-22T09:20:37.507Z,-78
2018-11-22T09:23:28.680Z,-79
2018-11-22T09:26:12.063Z,-80
2018-11-22T09:29:02.891Z,-80
2018-11-22T09:31:46.071Z,-79
2018-11-22T09:34:37.018Z,-80
2018-11-22T09:37:20.369Z,-80
2018-11-22T09:40:03.764Z,-80
2018-11-22T09:42:54.592Z,-80
2018-11-22T09:45:39.907Z,-81
2018-11-22T09:48:30.742Z,-78
2018-11-22T09:51:13.777Z,-80
2018-11-22T09:54:04.589Z,-79
2018-11-22T09:56:48.256Z,-79
2018-11-22T09:59:39.415Z,-79
2018-11-22T10:02:22.914Z,-79
2018-11-22T10:05:15.675Z,-79
2018-11-22T10:07:58.567Z,-79
2018-11-22T10:10:46.555Z,-79
2018-11-22T10:13:37.370Z,-79
2018-11-22T10:16:20.817Z,-79
2018-11-22T10:19:11.639Z,-79
2018-11-22T10:21:54.687Z,-79
2018-11-22T10:24:45.505Z,-79
2018-11-22T10:27:28.331Z,-79
2018-11-22T10:30:19.999Z,-79
2018-11-22T10:33:06.869Z,-79
2018-11-22T10:35:50.401Z,-78
2018-11-22T10:38:41.234Z,-79
2018-11-22T10:41:24.189Z,-79
2018-11-22T10:44:15.023Z,-79
2018-11-22T10:46:58.973Z,-79
2018-11-22T10:49:51.421Z,-78
2018-11-22T10:52:32.715Z,-78
2018-11-22T10:55:24.629Z,-78
2018-11-22T10:58:07.701Z,-79
2018-11-22T11:01:08.633Z,-79
2018-11-22T11:03:57.713Z,-79
2018-11-22T11:06:46.882Z,-80
2018-11-22T11:09:18.730Z,-79
2018-11-22T11:11:50.605Z,-79
2018-11-22T11:14:22.449Z,-79
2018-11-22T11:16:54.316Z,-79
2018-11-22T11:19:26.163Z,-79
2018-11-22T11:21:58.034Z,-79
2018-11-22T11:24:30.231Z,-78
2018-11-22T11:27:01.987Z,-78
2018-11-22T11:29:33.838Z,-79
2018-11-22T11:32:05.795Z,-79
2018-11-22T11:34:37.627Z,-80
2018-11-22T11:37:09.687Z,-79
2018-11-22T11:39:41.517Z,-80
2018-11-22T11:42:13.409Z,-79
2018-11-22T11:44:46.259Z,-79
2018-11-22T11:47:18.197Z,-79
2018-11-22T11:49:50.268Z,-79
2018-11-22T11:52:22.475Z,-79
2018-11-22T11:54:54.607Z,-79
2018-11-22T11:57:26.709Z,-78
2018-11-22T11:59:58.812Z,-79
2018-11-22T12:02:30.736Z,-79
2018-11-22T12:05:02.599Z,-79
2018-11-22T12:07:34.481Z,-79
2018-11-22T12:10:08.231Z,-79
2018-11-22T12:12:40.578Z,-79
2018-11-22T12:15:17.913Z,-79
2018-11-22T12:17:49.898Z,-80
2018-11-22T12:20:22.245Z,-79
2018-11-22T12:22:55.799Z,-80
2018-11-22T12:25:28.950Z,-80
2018-11-22T12:28:01.933Z,-79
2018-11-22T12:30:34.621Z,-79
2018-11-22T12:33:34.263Z,-79
2018-11-22T12:36:25.678Z,-79
2018-11-22T12:38:57.545Z,-79
2018-11-22T12:42:07.764Z,-80
2018-11-22T12:44:38.077Z,-80
2018-11-22T12:47:08.359Z,-80
2018-11-22T12:49:38.584Z,-79
2018-11-22T12:52:08.821Z,-79
2018-11-22T12:54:39.038Z,-80
2018-11-22T12:57:09.291Z,-79
2018-11-22T12:59:39.916Z,-80
2018-11-22T13:02:10.164Z,-79
2018-11-22T13:04:40.503Z,-80
2018-11-22T13:07:10.747Z,-79
2018-11-22T13:09:41.018Z,-79
2018-11-22T13:12:11.286Z,-80
2018-11-22T13:14:41.751Z,-79
2018-11-22T13:17:12.031Z,-79
2018-11-22T13:19:42.315Z,-79
2018-11-22T13:22:12.617Z,-79
2018-11-22T13:24:42.867Z,-80
2018-11-22T13:27:13.106Z,-79
2018-11-22T13:29:43.350Z,-79
2018-11-22T13:32:21.028Z,-79
2018-11-22T13:34:43.875Z,-79
2018-11-22T13:37:14.123Z,-79
2018-11-22T13:39:44.432Z,-80
2018-11-22T13:42:14.683Z,-79
2018-11-22T13:44:45.307Z,-79
2018-11-22T13:47:15.823Z,-80
2018-11-22T13:49:46.271Z,-79
2018-11-22T13:52:16.677Z,-80
2018-11-22T13:54:46.991Z,-80
2018-11-22T13:57:17.451Z,-79
2018-11-22T13:59:48.048Z,-79
2018-11-22T14:02:18.274Z,-79
2018-11-22T14:04:48.543Z,-79
2018-11-22T14:07:18.795Z,-79
2018-11-22T14:09:49.301Z,-80
2018-11-22T14:12:19.610Z,-80
2018-11-22T14:14:49.936Z,-79
2018-11-22T14:17:20.320Z,-80
2018-11-22T14:19:50.594Z,-79
2018-11-22T14:22:20.984Z,-80
2018-11-22T14:24:51.581Z,-80
2018-11-22T14:27:21.830Z,-80
2018-11-22T14:29:52.223Z,-81
2018-11-22T14:32:22.482Z,-81
2018-11-22T14:34:52.806Z,-80
2018-11-22T14:37:23.211Z,-80
2018-11-22T14:39:54.276Z,-81
2018-11-22T14:42:24.854Z,-81
2018-11-22T14:44:55.414Z,-80
2018-11-22T14:47:25.762Z,-83
2018-11-22T14:49:56.095Z,-81
2018-11-22T14:52:26.762Z,-81
2018-11-22T14:54:57.135Z,-80
2018-11-22T14:57:27.890Z,-81
2018-11-22T14:59:58.271Z,-81
2018-11-22T15:02:29.034Z,-81
2018-11-22T15:04:59.407Z,-81
2018-11-22T15:07:29.751Z,-81
2018-11-22T15:10:00.087Z,-81
2018-11-22T15:12:30.901Z,-81
2018-11-22T15:15:01.667Z,-80
2018-11-22T15:17:32.196Z,-80
2018-11-22T15:20:02.839Z,-80
2018-11-22T15:22:33.663Z,-80
2018-11-22T15:25:04.060Z,-80
2018-11-22T15:27:34.298Z,-80
2018-11-22T15:30:06.856Z,-80
2018-11-22T15:32:37.954Z,-81
2018-11-22T15:35:11.476Z,-81
2018-11-22T15:37:42.131Z,-80
2018-11-22T15:40:14.850Z,-81
2018-11-22T15:42:46.044Z,-80
2018-11-22T15:45:17.905Z,-81
2018-11-22T15:47:48.534Z,-80
2018-11-22T15:50:20.198Z,-81
2018-11-22T15:52:50.530Z,-81
2018-11-22T15:55:21.420Z,-81
2018-11-22T15:57:53.283Z,-80
2018-11-22T16:00:25.363Z,-80
2018-11-22T16:02:56.216Z,-80
2018-11-22T16:05:27.319Z,-80
2018-11-22T16:07:57.655Z,-80
2018-11-22T16:10:29.268Z,-81
2018-11-22T16:13:03.366Z,-80
2018-11-22T16:15:38.344Z,-80
2018-11-22T16:18:08.762Z,-80
2018-11-22T16:20:39.056Z,-80
2018-11-22T16:23:09.307Z,-80
2018-11-22T16:25:40.088Z,-80
2018-11-22T16:28:10.262Z,-80
2018-11-22T16:30:41.515Z,-79
2018-11-22T16:33:11.757Z,-79
2018-11-22T16:35:42.387Z,-79
2018-11-22T16:38:12.369Z,-79
2018-11-22T16:40:43.054Z,-79
2018-11-22T16:43:13.048Z,-80
2018-11-22T16:45:43.283Z,-78
2018-11-22T16:48:14.327Z,-78
2018-11-22T16:50:44.863Z,-78
2018-11-22T16:53:16.539Z,-78
2018-11-22T16:55:48.981Z,-79
2018-11-22T16:58:20.084Z,-79
2018-11-22T17:00:50.770Z,-79
2018-11-22T17:03:21.053Z,-79
2018-11-22T17:05:51.468Z,-79
2018-11-22T17:08:21.735Z,-79
2018-11-22T17:10:52.218Z,-79
2018-11-22T17:13:22.519Z,-79
2018-11-22T17:15:52.902Z,-80
2018-11-22T17:18:23.243Z,-79
2018-11-22T17:20:53.825Z,-80
2018-11-22T17:23:24.466Z,-79
2018-11-22T17:25:54.910Z,-80
2018-11-22T17:28:25.709Z,-80
2018-11-22T17:30:56.040Z,-78
2018-11-22T17:33:26.396Z,-78
2018-11-22T17:35:57.140Z,-78
2018-11-22T17:38:27.576Z,-79
2018-11-22T17:40:58.107Z,-78
2018-11-22T17:43:29.178Z,-78
2018-11-22T17:45:59.439Z,-77
2018-11-22T17:48:30.199Z,-77
2018-11-22T17:51:00.458Z,-77
2018-11-22T17:53:31.481Z,-77
2018-11-22T17:56:01.799Z,-78
2018-11-22T17:58:32.215Z,-78
2018-11-22T18:01:02.578Z,-77
2018-11-22T18:03:33.055Z,-78
2018-11-22T18:06:03.395Z,-77
2018-11-22T18:08:33.691Z,-77
2018-11-22T18:11:04.016Z,-78
2018-11-22T18:13:34.410Z,-77
2018-11-22T18:16:04.722Z,-77
2018-11-22T18:18:35.358Z,-77
2018-11-22T18:21:06.472Z,-77
2018-11-22T18:23:36.978Z,-77
2018-11-22T18:26:07.415Z,-77
2018-11-22T18:28:37.694Z,-76
2018-11-22T18:31:07.974Z,-76
2018-11-22T18:33:38.281Z,-77
2018-11-22T18:36:08.562Z,-77
2018-11-22T18:38:39.028Z,-77
2018-11-22T18:41:09.299Z,-77
2018-11-22T18:43:40.082Z,-77
2018-11-22T18:46:10.335Z,-77
2018-11-22T18:48:40.603Z,-77
2018-11-22T18:51:10.874Z,-77
2018-11-22T18:53:41.385Z,-77
2018-11-22T18:56:11.567Z,-77
2018-11-22T18:58:41.939Z,-77
2018-11-22T19:01:12.170Z,-77
2018-11-22T19:03:42.869Z,-77
2018-11-22T19:06:13.155Z,-80
2018-11-22T19:08:43.430Z,-78
2018-11-22T19:11:13.778Z,-78
2018-11-22T19:13:44.052Z,-78
2018-11-22T19:16:14.339Z,-78
2018-11-22T19:18:44.637Z,-78
2018-11-22T19:21:14.866Z,-78
2018-11-22T19:23:45.146Z,-78
2018-11-22T19:26:15.427Z,-78
2018-11-22T19:28:45.686Z,-79
2018-11-22T19:31:15.934Z,-78
2018-11-22T19:33:46.211Z,-78
2018-11-22T19:36:16.502Z,-78
2018-11-22T19:38:47.023Z,-78
2018-11-22T19:41:17.278Z,-78
2018-11-22T19:43:47.622Z,-78
2018-11-22T19:46:17.895Z,-78
2018-11-22T19:48:48.227Z,-78
2018-11-22T19:51:18.539Z,-78
2018-11-22T19:53:48.928Z,-79
2018-11-22T19:56:19.239Z,-78
2018-11-22T19:58:49.596Z,-78
2018-11-22T20:01:19.883Z,-78
2018-11-22T20:03:50.245Z,-78
2018-11-22T20:06:20.586Z,-78
2018-11-22T20:08:50.918Z,-78
2018-11-22T20:11:21.210Z,-79
2018-11-22T20:13:51.503Z,-78
2018-11-22T20:16:21.799Z,-78
2018-11-22T20:18:52.387Z,-79
2018-11-22T20:21:22.982Z,-78
2018-11-22T20:23:53.725Z,-78
2018-11-22T20:26:24.001Z,-79
2018-11-22T20:28:54.319Z,-81
2018-11-22T20:31:25.146Z,-79
2018-11-22T20:33:55.487Z,-79
2018-11-22T20:36:26.316Z,-78
2018-11-22T20:38:56.863Z,-79
2018-11-22T20:41:27.144Z,-79
2018-11-22T20:43:58.004Z,-79
2018-11-22T20:46:28.289Z,-79
2018-11-22T20:48:59.023Z,-79
2018-11-22T20:51:29.405Z,-79
2018-11-22T20:53:59.739Z,-79
2018-11-22T20:56:30.202Z,-79
2018-11-22T20:59:00.763Z,-79
2018-11-22T21:01:31.092Z,-79
2018-11-22T21:04:01.400Z,-79
2018-11-22T21:06:31.914Z,-80
2018-11-22T21:09:02.438Z,-79
2018-11-22T21:11:33.015Z,-80
2018-11-22T21:14:03.524Z,-80
2018-11-22T21:16:34.616Z,-80
2018-11-22T21:19:05.000Z,-80
2018-11-22T21:21:35.279Z,-80
2018-11-22T21:24:06.222Z,-80
2018-11-22T21:26:36.783Z,-80
2018-11-22T21:29:07.183Z,-80
2018-11-22T21:31:37.490Z,-80
2018-11-22T21:34:07.819Z,-80
2018-11-22T21:36:38.091Z,-80
2018-11-22T21:39:11.922Z,-80
2018-11-22T21:41:42.914Z,-80
2018-11-22T21:44:13.712Z,-80
2018-11-22T21:46:45.552Z,-80
2018-11-22T21:49:16.469Z,-80
2018-11-22T21:51:48.639Z,-80
2018-11-22T21:54:20.015Z,-80
2018-11-22T21:56:50.591Z,-80
2018-11-22T21:59:21.096Z,-80
2018-11-22T22:01:51.543Z,-80
2018-11-22T22:04:21.967Z,-80
2018-11-22T22:06:52.226Z,-80
2018-11-22T22:09:22.509Z,-80
2018-11-22T22:11:53.002Z,-80
2018-11-22T22:14:24.022Z,-80
2018-11-22T22:16:54.585Z,-80
2018-11-22T22:19:25.918Z,-80
2018-11-22T22:21:56.239Z,-80
2018-11-22T22:24:28.166Z,-80
2018-11-22T22:26:59.003Z,-79
2018-11-22T22:29:29.319Z,-79
2018-11-22T22:32:00.614Z,-80
2018-11-22T22:34:30.994Z,-80
2018-11-22T22:37:01.255Z,-80
2018-11-22T22:39:31.869Z,-81
2018-11-22T22:42:02.557Z,-80
2018-11-22T22:44:33.072Z,-81
2018-11-22T22:47:03.317Z,-81
2018-11-22T22:49:34.042Z,-81
2018-11-22T22:52:04.277Z,-80
2018-11-22T22:54:34.851Z,-81
2018-11-22T22:57:05.142Z,-81
2018-11-22T22:59:35.455Z,-80
2018-11-22T23:02:05.777Z,-80
2018-11-22T23:04:36.046Z,-80
2018-11-22T23:07:06.427Z,-80
2018-11-22T23:09:36.695Z,-80
2018-11-22T23:12:07.429Z,-80
2018-11-22T23:14:37.687Z,-80
2018-11-22T23:17:07.918Z,-81
2018-11-22T23:19:38.225Z,-81
2018-11-22T23:22:08.631Z,-80
2018-11-22T23:24:39.031Z,-80
2018-11-22T23:27:09.278Z,-80
2018-11-22T23:29:40.064Z,-80
2018-11-22T23:32:10.330Z,-80
2018-11-22T23:34:40.583Z,-80
2018-11-22T23:37:10.825Z,-81
2018-11-22T23:39:41.100Z,-80
2018-11-22T23:42:11.357Z,-81
2018-11-22T23:44:42.147Z,-80
2018-11-22T23:47:12.374Z,-80
2018-11-22T23:49:42.836Z,-80
2018-11-22T23:52:13.104Z,-80
2018-11-22T23:54:43.894Z,-80
2018-11-22T23:57:14.147Z,-80
2018-11-22T23:59:44.419Z,-80
